ソウル/仁川 の空港の天気 - METARとTAF

仁川国際空港 ( RKSI / ICN ) - 韓国 仁川広域市 (ソウル特別市近郊)
飛行場実況気象(Metar)
観測時間12/15 21:30 KST (12/15 12:30 UTC)
風向・風速北 2m/s
視程10km以上
天気現象
なし
気温-2℃
湿度69%
気圧1029hPa
METARRKSI 151230Z 01003KT CAVOK M02/M07 Q1029 NOSIG
過去の天気等 Google飛行場航空写真 Wunderground天気予報

過去48時間のMETAR

飛行場予報(TAF)
発表時間: 12/15 20:00 KST (12/15 11:00 UTC)
予報対象時間: 15日21時 KST ~ 17日3時 KST
風向・風速北東 3m/s
視程10km以上
少しの雲 雲底高度 910m
全天の8割程度の雲 雲底高度 4570m
16日3時 KST ~ 16日4時 KST に徐々に
風向・風速南南西 5m/s
少しの雲 雲底高度 300m
全天の8割程度の雲 雲底高度 910m
全天を覆う雲 雲底高度 2440m
16日9時 KST ~ 16日10時 KST に徐々に
風向・風速南 5m/s
視程2800m
天気現象弱い雪
16日12時 KST ~ 16日13時 KST に徐々に
風向・風速南南西 5m/s
視程3500m
天気現象弱い雨
16日15時 KST ~ 16日16時 KST に徐々に
風向・風速北北西 5m/s
視程6000m
天気現象運行に影響にある天気現象が終了
全天の4割程度の雲 雲底高度 910m
16日20時 KST ~ 16日21時 KST に徐々に
風向・風速北北西 8m/s 瞬間風速 13m/s
TAF RKSI 151100Z 1512/1618 04006KT 9999 FEW030 BKN150 TNM01/1521Z TX07/1606Z
BECMG 1518/1519 20010KT FEW010 BKN030 OVC080
BECMG 1600/1601 17010KT 2800 -SN
BECMG 1603/1604 20010KT 3500 -RA
BECMG 1606/1607 33010KT 6000 NSW SCT030
BECMG 1611/1612 34015G25KT